Time;durP1;ratioP1;P1;durP2;ratioP2;P2;SDS_P1;SDS_P2;PMS_P1;PMS_P2;Temp;Humidity;BMP_temperature;BMP_pressure;BME280_temperature;BME280_humidity;BME280_pressure;Samples;Min_cycle;Max_cycle;Signal;HPM_P1;HPM_P2
2023/12/02 00:02:58;;;;;;;;;;;;;;;0.85;90.13;97970.69;7186871;40;20646;31
2023/12/02 00:08:19;;;;;;;;;;;;;;;0.89;90.31;97972.09;7199607;40;19993;31
2023/12/02 00:13:55;;;;;;;;;;;;;;;0.93;89.78;97968.19;7201433;40;20004;31
2023/12/02 00:19:15;;;;;;;;;;;;;;;0.95;90.05;97970.72;7224085;40;20543;31
2023/12/02 00:24:35;;;;;;;;;;;;;;;0.99;90.05;97970.31;7246706;40;19992;31
2023/12/02 00:30:11;;;;;;;;;;;;;;;1.05;89.37;97979.53;7253228;40;20017;31
2023/12/02 00:35:32;;;;;;;;;;;;;;;0.98;88.53;97968.63;7227883;40;20524;31
2023/12/02 00:40:52;;;;;;;;;;;;;;;0.87;89.29;97959.00;7224015;40;20032;31
2023/12/02 00:46:28;;;;;;;;;;;;;;;0.95;89.30;97965.41;7244539;40;20614;31
2023/12/02 00:51:49;;;;;;;;;;;;;;;0.88;89.43;97981.84;7223979;40;20098;31
2023/12/02 00:57:09;;;;;;;;;;;;;;;0.87;89.15;97977.56;7219291;40;20240;31
2023/12/02 01:02:45;;;;;;;;;;;;;;;0.90;89.72;97976.44;7217617;40;20503;31
2023/12/02 01:08:19;;;;;;;;;;;;;;;0.82;89.37;97969.16;7178040;40;20006;31
2023/12/02 01:19:01;;;;;;;;;;;;;;;0.71;89.23;97990.47;7228318;40;20526;31
2023/12/02 01:29:25;;;;;;;;;;;;;;;0.69;89.54;98002.19;7239280;40;20695;31
2023/12/02 01:34:58;;;;;;;;;;;;;;;0.65;89.76;98012.25;7299157;39;20131;31
2023/12/02 01:40:16;;;;;;;;;;;;;;;0.63;90.18;98013.31;7054226;40;21051;31
2023/12/02 01:45:33;;;;;;;;;;;;;;;0.59;90.17;98022.53;7277999;40;20515;31
2023/12/02 01:51:08;;;;;;;;;;;;;;;0.57;89.78;98019.19;7260365;40;19997;31
2023/12/02 01:56:27;;;;;;;;;;;;;;;0.57;90.12;98033.25;7175923;40;20084;31
2023/12/02 02:02:02;;;;;;;;;;;;;;;0.56;90.08;98034.25;7185783;40;19993;31
2023/12/02 02:07:39;;;;;;;;;;;;;;;0.59;90.26;98035.78;7185320;40;19998;31
2023/12/02 02:12:59;;;;;;;;;;;;;;;0.59;90.59;98041.91;7206299;40;20531;31
2023/12/02 02:18:34;;;;;;;;;;;;;;;0.63;89.78;98040.69;7258774;39;21781;31
2023/12/02 02:29:15;;;;;;;;;;;;;;;0.64;89.64;98058.28;7206632;40;20009;31
2023/12/02 02:39:40;;;;;;;;;;;;;;;0.62;89.29;98054.06;7229350;40;20569;31
2023/12/02 02:45:16;;;;;;;;;;;;;;;0.56;89.29;98067.84;7277368;40;20066;31
2023/12/02 02:50:51;;;;;;;;;;;;;;;0.49;88.88;98069.34;7263987;39;20347;31
2023/12/02 03:07:13;;;;;;;;;;;;;;;0.32;89.21;98068.97;7260535;40;20008;31
2023/12/02 03:12:48;;;;;;;;;;;;;;;0.26;89.04;98068.69;7239296;40;20013;31
2023/12/02 03:18:08;;;;;;;;;;;;;;;0.24;89.17;98075.91;7248653;40;20477;31
2023/12/02 03:23:44;;;;;;;;;;;;;;;0.20;88.83;98067.38;7277963;40;20593;31
2023/12/02 03:29:19;;;;;;;;;;;;;;;0.14;88.94;98069.69;7249372;40;21052;31
2023/12/02 03:40:00;;;;;;;;;;;;;;;0.13;88.84;98084.78;7272873;39;20561;31
2023/12/02 03:50:40;;;;;;;;;;;;;;;0.17;89.20;98075.59;7276733;39;20551;31
2023/12/02 04:01:22;;;;;;;;;;;;;;;0.12;89.36;98090.19;7273532;39;20530;31
2023/12/02 04:06:54;;;;;;;;;;;;;;;0.16;88.72;98091.59;7242516;40;20444;31
2023/12/02 04:12:15;;;;;;;;;;;;;;;0.26;88.09;98095.16;7192060;40;20067;31
2023/12/02 04:17:52;;;;;;;;;;;;;;;0.28;88.07;98095.87;7218490;40;20536;31
2023/12/02 04:23:28;;;;;;;;;;;;;;;0.24;87.41;98108.53;7187291;40;19993;31
2023/12/02 04:29:04;;;;;;;;;;;;;;;0.23;86.75;98117.44;7198035;40;20004;31
2023/12/02 04:34:40;;;;;;;;;;;;;;;0.18;86.73;98127.59;7219660;40;20068;31
2023/12/02 04:45:02;;;;;;;;;;;;;;;0.15;86.80;98145.56;7212442;40;20535;31
2023/12/02 04:55:43;;;;;;;;;;;;;;;0.23;85.63;98166.94;7301402;39;19990;31
2023/12/02 05:01:04;;;;;;;;;;;;;;;0.21;86.51;98184.78;7319281;39;19992;31
2023/12/02 05:06:24;;;;;;;;;;;;;;;0.14;85.07;98191.53;7278747;39;21212;31
2023/12/02 05:12:00;;;;;;;;;;;;;;;0.08;85.57;98210.63;7263961;40;19993;31
2023/12/02 05:17:21;;;;;;;;;;;;;;;0.11;85.18;98215.66;7235509;40;19992;31
2023/12/02 05:22:56;;;;;;;;;;;;;;;0.07;85.13;98230.13;7269265;39;20506;31
2023/12/02 05:28:33;;;;;;;;;;;;;;;0.10;85.32;98238.66;7248044;40;19993;31
2023/12/02 05:33:54;;;;;;;;;;;;;;;0.12;85.58;98243.81;7258979;40;20105;31
2023/12/02 05:39:29;;;;;;;;;;;;;;;0.12;85.75;98249.97;7300896;40;20606;31
2023/12/02 05:45:05;;;;;;;;;;;;;;;0.10;84.77;98254.53;7240971;40;20444;31
2023/12/02 05:50:25;;;;;;;;;;;;;;;0.13;86.06;98266.72;7184946;40;20085;31
2023/12/02 06:01:05;;;;;;;;;;;;;;;0.07;84.43;98259.25;7250207;40;20479;31
2023/12/02 06:06:25;;;;;;;;;;;;;;;-0.09;82.10;98271.06;7249934;40;20008;31
2023/12/02 06:11:46;;;;;;;;;;;;;;;-0.11;83.53;98280.97;7260785;40;20016;31
2023/12/02 06:17:22;;;;;;;;;;;;;;;-0.07;82.90;98295.63;7240935;40;20478;31
2023/12/02 06:22:43;;;;;;;;;;;;;;;-0.02;83.41;98300.56;7218477;40;20067;31
2023/12/02 06:28:20;;;;;;;4.90;3.10;;;;;;;0.03;83.14;98308.97;7278628;39;20673;31
2023/12/02 06:33:56;;;;;;;4.80;3.30;;;;;;;-0.02;82.17;98305.84;7298756;39;20303;31
2023/12/02 06:39:32;;;;;;;5.35;3.40;;;;;;;-0.12;81.71;98323.44;7213498;40;20239;31
2023/12/02 06:44:53;;;;;;;5.05;3.85;;;;;;;-0.07;83.55;98322.13;7157632;40;20929;31
2023/12/02 06:50:28;;;;;;;4.25;3.05;;;;;;;-0.06;82.23;98323.81;7146244;40;20241;31
2023/12/02 06:55:50;;;;;;;3.93;3.13;;;;;;;0.01;82.35;98332.09;7157084;40;20322;31
2023/12/02 07:01:26;;;;;;;4.40;3.60;;;;;;;-0.05;82.14;98336.09;7200861;40;20732;31
2023/12/02 07:07:01;;;;;;;4.75;3.65;;;;;;;0.00;83.20;98352.44;7165259;40;20704;31
2023/12/02 07:12:20;;;;;;;4.60;3.50;;;;;;;0.09;83.22;98368.59;7187314;40;20376;31
2023/12/02 07:17:55;;;;;;;4.40;3.30;;;;;;;0.10;82.99;98371.09;7196813;40;20242;31
2023/12/02 07:23:26;;;;;;;5.55;3.50;;;;;;;0.00;82.02;98386.06;7128430;40;20239;31
2023/12/02 07:28:55;;;;;;;6.15;3.00;;;;;;;-0.02;81.07;98390.59;7180999;40;20321;31
2023/12/02 07:34:16;;;;;;;3.77;2.80;;;;;;;-0.08;81.90;98397.22;7158589;40;20403;31
2023/12/02 07:39:49;;;;;;;;;;;;;;;-0.07;82.34;98401.56;7230770;40;20728;31
2023/12/02 07:45:08;;;;;;;;;;;;;;;-0.07;81.99;98412.16;7211646;40;20143;31
2023/12/02 07:50:29;;;;;;;3.87;3.20;;;;;;;-0.12;81.85;98411.66;7203995;40;20110;31
2023/12/02 07:55:57;;;;;;;4.00;2.93;;;;;;;-0.09;81.86;98418.53;7237224;40;20936;31
2023/12/02 08:01:30;;;;;;;3.80;3.00;;;;;;;-0.17;81.66;98419.12;7196516;40;20715;31
2023/12/02 08:06:50;;;;;;;4.00;3.15;;;;;;;-0.30;81.35;98434.25;7197691;40;21307;31
2023/12/02 08:12:25;;;;;;;3.93;2.33;;;;;;;-0.42;79.93;98442.31;7261095;40;20593;31
2023/12/02 08:18:01;;;;;;;4.10;3.20;;;;;;;-0.37;81.88;98448.94;7215371;40;20866;31
2023/12/02 08:23:21;;;;;;;4.05;2.95;;;;;;;-0.34;81.52;98454.00;7228500;40;20242;31
2023/12/02 08:28:55;;;;;;;3.50;2.70;;;;;;;-0.57;79.82;98463.66;7178041;40;20734;31
2023/12/02 08:34:30;;;;;;;3.15;2.75;;;;;;;-0.48;81.89;98476.22;7191668;40;20244;31
2023/12/02 08:39:50;;;;;;;3.90;2.90;;;;;;;-0.47;81.01;98490.28;7151008;40;20773;31
2023/12/02 08:45:27;;;;;;;4.20;3.77;;;;;;;-0.50;81.47;98488.72;7151942;40;20237;31
2023/12/02 08:50:44;;;;;;;4.03;3.30;;;;;;;-0.38;81.78;98509.94;7030607;40;21198;31
2023/12/02 08:56:20;;;;;;;4.33;3.60;;;;;;;-0.29;81.29;98517.19;7206842;40;20243;31
2023/12/02 09:01:56;;;;;;;3.67;2.90;;;;;;;-0.34;80.20;98530.75;7197436;40;20271;31
2023/12/02 09:07:31;;;;;;;4.70;3.33;;;;;;;-0.32;81.36;98534.16;7201400;40;20281;31
2023/12/02 09:12:51;;;;;;;4.53;3.23;;;;;;;-0.24;81.31;98550.31;7213307;40;20737;31
2023/12/02 09:23:32;;;;;;;5.80;3.90;;;;;;;-0.35;81.24;98566.13;7239229;40;20255;31
2023/12/02 09:29:07;;;;;;;4.17;3.07;;;;;;;-0.26;79.76;98560.16;7252381;40;20849;31
2023/12/02 09:34:46;;;;;;;4.40;2.80;;;;;;;-0.44;80.04;98579.22;7254379;40;20733;31
2023/12/02 09:40:29;;;;;;;4.00;2.97;;;;;;;-0.38;79.67;98582.25;7257734;40;20253;31
2023/12/02 09:46:02;;;;;;;3.80;3.10;;;;;;;-0.31;79.90;98585.31;7259058;40;20306;31
2023/12/02 09:51:36;;;;;;;4.97;2.87;;;;;;;-0.30;79.46;98590.47;7247707;40;20461;31
2023/12/02 09:57:07;;;;;;;3.80;2.95;;;;;;;-0.33;80.36;98579.25;7214976;40;20862;31
2023/12/02 10:02:40;;;;;;;4.40;2.80;;;;;;;-0.44;79.65;98598.59;7228289;40;20392;31
2023/12/02 10:08:14;;;;;;;2.43;1.60;;;;;;;-0.56;79.60;98608.25;7218289;40;20243;31
2023/12/02 10:13:46;;;;;;;3.80;3.10;;;;;;;-0.53;80.17;98601.91;7172530;40;20257;31
2023/12/02 10:19:18;;;;;;;4.40;3.60;;;;;;;-0.55;80.25;98611.75;7186484;40;20869;31
2023/12/02 10:24:54;;;;;;;3.80;2.80;;;;;;;-0.49;79.24;98617.47;7207707;40;20847;31
2023/12/02 10:30:30;;;;;;;12.45;6.45;;;;;;;-0.48;78.76;98611.19;7233887;40;20334;31
2023/12/02 10:36:05;;;;;;;8.40;4.30;;;;;;;-0.56;79.07;98624.13;7180260;40;20701;31
2023/12/02 10:41:39;;;;;;;7.03;4.27;;;;;;;-0.46;79.06;98626.97;7210953;40;20232;31
2023/12/02 10:47:13;;;;;;;4.47;3.40;;;;;;;-0.35;79.40;98621.72;7149929;40;20247;31
2023/12/02 10:52:48;;;;;;;4.50;3.00;;;;;;;-0.40;78.83;98621.25;7180872;40;20246;31
2023/12/02 10:58:23;;;;;;;3.57;2.43;;;;;;;-0.44;78.01;98633.00;7210682;40;20714;31
2023/12/02 11:04:00;;;;;;;5.37;3.63;;;;;;;-0.40;77.47;98633.62;7211771;40;20750;31
2023/12/02 11:09:37;;;;;;;6.67;3.23;;;;;;;-0.28;77.67;98640.66;7227565;40;20725;31
2023/12/02 11:15:11;;;;;;;6.50;3.87;;;;;;;-0.12;77.74;98644.69;7211956;40;20735;31
2023/12/02 11:20:47;;;;;;;5.20;3.80;;;;;;;-0.22;76.98;98664.03;7213110;40;20782;31
2023/12/02 11:26:24;;;;;;;5.53;2.87;;;;;;;-0.36;77.41;98662.41;7211859;40;20723;31
2023/12/02 11:37:07;;;;;;;6.30;4.20;;;;;;;-0.13;77.86;98673.94;7262104;40;20284;31
2023/12/02 11:42:42;;;;;;;19.70;9.50;;;;;;;-0.09;77.43;98680.72;7203830;40;20703;31
2023/12/02 11:48:33;;;;;;;17.03;9.30;;;;;;;-0.25;76.15;98690.72;7213970;40;20739;31
2023/12/02 11:59:11;;;;;;;5.70;4.10;;;;;;;-0.01;78.88;98710.97;7117150;40;20251;31
2023/12/02 12:04:50;;;;;;;5.70;3.50;;;;;;;-0.02;76.58;98717.22;7141199;40;20958;31
2023/12/02 12:10:26;;;;;;;3.55;2.75;;;;;;;-0.46;76.82;98717.81;7198503;40;20743;31
2023/12/02 12:16:02;;;;;;;1.85;1.30;;;;;;;-0.57;75.93;98740.72;7187891;40;20372;31
2023/12/02 12:21:23;;;;;;;22.40;9.63;;;;;;;-0.58;76.67;98744.31;7228402;40;20733;31
2023/12/02 12:26:57;;;;;;;4.50;3.00;;;;;;;-0.60;75.86;98752.34;7235527;40;20701;31
2023/12/02 12:32:33;;;;;;;4.90;3.70;;;;;;;-0.68;76.12;98767.06;7173458;40;20873;31
2023/12/02 12:37:53;;;;;;;3.23;2.50;;;;;;;-0.51;77.11;98777.31;7185134;40;20702;31
2023/12/02 12:43:26;;;;;;;5.73;4.33;;;;;;;-0.50;77.11;98790.44;7219972;40;20344;31
2023/12/02 12:49:15;;;;;;;4.10;3.00;;;;;;;-0.44;75.71;98798.91;7198182;40;20781;31
2023/12/02 12:54:48;;;;;;;4.35;3.10;;;;;;;-0.35;76.76;98808.84;7217797;40;20368;31
2023/12/02 13:00:18;;;;;;;3.00;2.70;;;;;;;-0.02;77.48;98814.38;7210753;40;20235;31
2023/12/02 13:05:55;;;;;;;4.00;2.60;;;;;;;0.06;76.49;98829.72;7148071;40;20253;31
2023/12/02 13:11:27;;;;;;;3.80;3.10;;;;;;;0.06;76.65;98837.66;7144012;40;20271;31
2023/12/02 13:16:56;;;;;;;4.20;3.40;;;;;;;-0.27;74.37;98844.44;7169837;40;20820;31
2023/12/02 13:22:27;;;;;;;3.22;2.60;;;;;;;-0.30;75.75;98851.72;7194948;40;20798;31
2023/12/02 13:28:00;;;;;;;5.75;3.65;;;;;;;-0.36;74.25;98849.50;7138013;40;20240;31
2023/12/02 13:33:44;;;;;;;2.90;2.20;;;;;;;-0.53;72.49;98863.91;7150718;40;20884;31
2023/12/02 13:44:22;;;;;;;2.63;2.37;;;;;;;-0.48;73.74;98894.38;7188174;40;20270;31
2023/12/02 13:49:56;;;;;;;3.53;2.50;;;;;;;-0.44;73.95;98904.78;7189716;40;20807;31
2023/12/02 13:55:34;;;;;;;4.10;3.30;;;;;;;-0.49;73.22;98913.91;7152088;40;20987;31
2023/12/02 14:01:09;;;;;;;5.63;3.90;;;;;;;-0.35;74.50;98920.84;7167797;40;20832;31
2023/12/02 14:06:45;;;;;;;5.70;3.70;;;;;;;-0.23;75.18;98914.75;7188928;40;20798;31
2023/12/02 14:12:23;;;;;;;3.85;2.78;;;;;;;-0.26;72.01;98935.25;7177660;40;20818;31
2023/12/02 14:17:59;;;;;;;5.05;3.75;;;;;;;-0.28;75.14;98945.97;7185688;40;20253;31
2023/12/02 14:23:53;;;;;;;4.85;2.95;;;;;;;-0.19;74.72;98961.25;7216893;40;20843;31
2023/12/02 14:29:27;;;;;;;5.33;4.77;;;;;;;-0.06;75.37;98972.69;7198239;40;20845;31
2023/12/02 14:35:05;;;;;;;4.23;3.33;;;;;;;0.12;75.59;98989.09;7213949;40;20928;31
2023/12/02 14:40:38;;;;;;;4.10;3.10;;;;;;;0.20;74.51;98999.16;7248572;40;20734;31
2023/12/02 14:46:15;;;;;;;3.30;2.80;;;;;;;0.07;74.73;99011.56;7213296;40;20833;31
2023/12/02 14:51:49;;;;;;;3.20;2.87;;;;;;;0.10;72.82;99021.94;6994938;40;21368;31
2023/12/02 14:57:32;;;;;;;3.63;2.97;;;;;;;0.16;74.64;99026.84;7229086;40;20253;31
2023/12/02 15:03:08;;;;;;;14.77;8.77;;;;;;;0.21;74.49;99041.47;7176112;40;20270;31
2023/12/02 15:13:48;;;;;;;5.70;4.60;;;;;;;0.29;74.35;99056.84;7187895;40;20394;31
2023/12/02 15:24:13;;;;;;;4.35;3.50;;;;;;;0.39;74.35;99077.31;7282031;40;20257;31
2023/12/02 15:29:47;;;;;;;4.83;3.40;;;;;;;0.20;71.13;99081.31;7259778;40;20459;31
2023/12/02 15:35:19;;;;;;;7.97;5.60;;;;;;;-0.13;72.79;99089.72;7207021;40;20255;31
2023/12/02 15:40:51;;;;;;;10.47;6.10;;;;;;;-0.33;71.81;99101.66;7237710;40;20257;31
2023/12/02 15:46:28;;;;;;;4.43;3.27;;;;;;;-0.67;70.27;99118.03;7216502;40;20258;31
2023/12/02 15:52:00;;;;;;;6.70;3.95;;;;;;;-0.85;71.34;99127.13;7238859;39;20704;31
2023/12/02 15:57:35;;;;;;;4.20;3.10;;;;;;;-0.90;71.30;99143.31;7254343;40;20231;31
2023/12/02 16:03:11;;;;;;;6.03;4.17;;;;;;;-0.77;71.69;99146.87;7168498;40;20363;31
2023/12/02 16:08:43;;;;;;;5.63;4.03;;;;;;;-0.68;74.30;99167.47;7169593;40;20263;31
2023/12/02 16:14:15;;;;;;;4.90;3.65;;;;;;;-0.30;74.61;99167.63;7218270;40;20264;31
2023/12/02 16:19:52;;;;;;;4.25;3.05;;;;;;;-0.18;73.57;99177.44;7242671;40;20446;31
2023/12/02 16:25:27;;;;;;;6.47;3.73;;;;;;;-0.08;73.97;99202.38;7228049;40;20380;31
2023/12/02 16:31:06;;;;;;;3.95;3.25;;;;;;;-0.12;73.68;99200.00;7238983;40;20312;31
2023/12/02 16:36:43;;;;;;;4.87;4.20;;;;;;;-0.13;73.15;99209.75;7231956;40;20403;31
2023/12/02 16:42:03;;;;;;;5.37;3.83;;;;;;;-0.06;73.41;99215.53;7194175;40;22070;31
2023/12/02 16:52:44;;;;;;;5.10;3.60;;;;;;;-0.01;73.05;99226.66;7285220;39;20268;31
2023/12/02 16:58:16;;;;;;;5.13;3.60;;;;;;;0.04;73.20;99251.06;7263388;39;20262;31
2023/12/02 17:08:57;;;;;;;5.33;3.93;;;;;;;0.08;72.76;99257.00;7298221;39;20264;31
2023/12/02 17:14:32;;;;;;;4.85;4.10;;;;;;;0.06;72.84;99269.50;7274439;39;20858;31
2023/12/02 17:19:53;;;;;;;5.70;4.37;;;;;;;0.09;72.73;99269.31;7246036;40;20757;31
2023/12/02 17:25:55;;;;;;;4.77;3.67;;;;;;;0.09;73.68;99278.09;7279688;40;20771;31
2023/12/02 17:31:15;;;;;;;7.00;4.20;;;;;;;0.12;73.30;99282.34;7245485;40;21987;31
2023/12/02 17:36:50;;;;;;;5.53;4.07;;;;;;;0.11;73.27;99283.31;7259701;40;20316;31
2023/12/02 17:42:25;;;;;;;5.55;4.35;;;;;;;0.13;73.37;99292.00;7263890;40;20272;31
2023/12/02 17:47:46;;;;;;;8.87;5.50;;;;;;;0.15;73.21;99300.69;7237253;40;20371;31
2023/12/02 17:53:21;;;;;;;12.53;7.57;;;;;;;0.16;73.36;99297.09;7235954;40;20841;31
2023/12/02 17:58:56;;;;;;;8.03;5.60;;;;;;;0.14;72.54;99307.78;7261600;40;20242;31
2023/12/02 18:04:32;;;;;;;17.30;8.55;;;;;;;0.06;72.56;99314.53;7237945;40;20276;31
2023/12/02 18:15:10;;;;;;;11.07;6.60;;;;;;;0.05;72.92;99321.63;7273005;39;20256;31
2023/12/02 18:25:50;;;;;;;7.07;5.23;;;;;;;0.00;72.67;99345.75;7301593;39;20267;31
2023/12/02 18:31:24;;;;;;;6.60;5.20;;;;;;;-0.03;73.12;99342.47;7297602;40;20244;31
2023/12/02 18:36:41;;;;;;;5.50;4.50;;;;;;;0.03;72.76;99354.47;7307420;39;20238;31
2023/12/02 18:42:01;;;;;;;6.37;4.77;;;;;;;-0.01;72.92;99359.97;7318600;39;20243;31
2023/12/02 18:47:34;;;;;;;6.10;4.80;;;;;;;0.00;73.24;99369.59;7267491;40;20411;31
2023/12/02 18:52:52;;;;;;;6.20;4.73;;;;;;;0.13;73.43;99379.47;7222401;40;20513;31
2023/12/02 18:58:27;;;;;;;8.43;5.33;;;;;;;0.12;73.42;99375.09;7232864;40;20302;31
2023/12/02 19:03:59;;;;;;;5.95;4.60;;;;;;;0.02;72.07;99389.84;7267000;40;20267;31
2023/12/02 19:09:16;;;;;;;6.83;5.90;;;;;;;-0.04;72.60;99393.72;7189336;40;20565;31
2023/12/02 19:14:35;;;;;;;6.17;4.80;;;;;;;-0.04;73.15;99393.72;7174731;40;20315;31
2023/12/02 19:20:07;;;;;;;6.77;5.27;;;;;;;0.04;72.56;99395.94;7207901;40;20230;31
2023/12/02 19:25:26;;;;;;;9.20;7.10;;;;;;;0.10;73.37;99412.28;7219547;40;20714;31
2023/12/02 19:31:02;;;;;;;6.63;5.20;;;;;;;0.09;72.59;99409.75;7225338;40;20814;31
2023/12/02 19:36:38;;;;;;;7.77;5.47;;;;;;;-0.12;73.19;99404.81;7238723;40;20257;31
2023/12/02 19:42:13;;;;;;;8.03;5.13;;;;;;;-0.05;73.08;99408.81;7207648;40;21965;31
2023/12/02 19:52:53;;;;;;;6.78;5.20;;;;;;;-0.09;72.51;99428.44;7239520;40;20255;31
2023/12/02 19:58:13;;;;;;;13.43;8.20;;;;;;;-0.01;72.35;99441.25;7268220;39;20292;31
2023/12/02 20:03:33;;;;;;;7.57;5.93;;;;;;;-0.06;72.52;99440.69;7263381;40;20292;31
2023/12/02 20:14:15;;;;;;;7.05;5.50;;;;;;;-0.11;73.11;99451.56;7289027;39;20329;31
2023/12/02 20:19:49;;;;;;;7.20;5.30;;;;;;;-0.08;73.19;99454.00;7280699;40;20896;31
2023/12/02 20:30:27;;;;;;;7.73;5.70;;;;;;;0.05;72.96;99479.75;7277799;40;20354;31
2023/12/02 20:41:07;;;;;;;10.60;7.15;;;;;;;0.06;73.58;99492.03;7299137;40;20280;31
2023/12/02 20:46:43;;;;;;;11.27;7.80;;;;;;;0.05;73.07;99499.13;7239075;40;20805;31
2023/12/02 20:57:23;;;;;;;17.30;10.80;;;;;;;-0.09;72.87;99513.22;7203971;40;20267;31
2023/12/02 21:08:04;;;;;;;7.15;5.95;;;;;;;-0.25;72.79;99530.13;7253192;39;20269;31
2023/12/02 21:18:44;;;;;;;8.73;6.13;;;;;;;-0.18;72.86;99518.25;7285991;39;20261;31
2023/12/02 21:24:20;;;;;;;7.45;6.10;;;;;;;-0.20;72.34;99525.41;7258152;40;20404;31
2023/12/02 21:29:38;;;;;;;9.95;6.70;;;;;;;-0.18;73.54;99524.41;7256800;40;20265;31
2023/12/02 21:35:12;;;;;;;11.00;7.80;;;;;;;-0.30;71.86;99532.19;7236880;40;20272;31
2023/12/02 21:46:13;;;;;;;12.43;9.60;;;;;;;-0.31;73.39;99549.91;7278545;40;20260;31
2023/12/02 21:56:53;;;;;;;10.50;7.50;;;;;;;-0.34;73.18;99558.00;7270532;40;20352;31
2023/12/02 22:02:26;;;;;;;10.90;7.80;;;;;;;-0.41;73.00;99556.66;7217522;40;20794;31
2023/12/02 22:07:44;;;;;;;9.75;7.35;;;;;;;-0.36;74.14;99567.00;7245603;40;20321;31
2023/12/02 22:13:17;;;;;;;11.97;8.60;;;;;;;-0.38;73.48;99571.50;7039537;40;21816;31
2023/12/02 22:18:53;;;;;;;10.10;7.70;;;;;;;-0.43;73.20;99574.41;7297940;39;20879;31
2023/12/02 22:24:30;;;;;;;10.97;7.70;;;;;;;-0.43;74.23;99581.50;7296994;40;20791;31
2023/12/02 22:29:48;;;;;;;10.95;7.40;;;;;;;-0.42;73.90;99596.44;7247920;40;20261;31
2023/12/02 22:35:25;;;;;;;11.35;7.60;;;;;;;-0.44;74.18;99593.91;7214569;40;20689;31
2023/12/02 22:41:00;;;;;;;10.57;7.43;;;;;;;-0.47;73.57;99599.38;7191180;40;20259;31
2023/12/02 22:46:35;;;;;;;11.17;7.03;;;;;;;-0.56;73.94;99605.19;7148791;40;20724;31
2023/12/02 22:52:11;;;;;;;9.67;7.17;;;;;;;-0.58;73.99;99615.88;7139832;40;20708;31
2023/12/02 22:57:46;;;;;;;11.03;7.80;;;;;;;-0.58;74.11;99630.91;7203496;40;20744;31
2023/12/02 23:03:21;;;;;;;11.23;8.37;;;;;;;-0.54;75.24;99643.03;7182367;40;20238;31
2023/12/02 23:08:57;;;;;;;14.00;9.55;;;;;;;-0.64;75.21;99633.88;7212671;40;20760;31
2023/12/02 23:14:37;;;;;;;9.10;6.60;;;;;;;-0.87;74.44;99639.59;7222024;40;20829;31
2023/12/02 23:20:02;;;;;;;10.80;6.90;;;;;;;-1.09;75.23;99648.69;7160735;40;20711;31
2023/12/02 23:25:34;;;;;;;12.70;7.30;;;;;;;-1.04;75.67;99630.78;7166199;40;20236;31
2023/12/02 23:31:09;;;;;;;10.70;8.02;;;;;;;-0.96;75.66;99641.81;7210073;40;22237;31
2023/12/02 23:36:44;;;;;;;11.70;7.40;;;;;;;-0.95;76.69;99643.50;7247226;40;20826;31
2023/12/02 23:42:18;;;;;;;13.67;9.93;;;;;;;-0.87;75.59;99636.94;7255470;40;20257;31
2023/12/02 23:47:53;;;;;;;14.80;9.70;;;;;;;-0.83;76.40;99641.97;7232088;40;20723;31
2023/12/02 23:53:28;;;;;;;9.47;6.73;;;;;;;-0.87;75.97;99644.88;7256273;40;20714;31
2023/12/02 23:59:04;;;;;;;10.03;7.30;;;;;;;-1.01;75.58;99645.66;7225732;40;20760;31
